sensor_id;sensor_type;location;lat;lon;timestamp;temperature;humidity
8332;DHT22;4203;48.144;14.118;2023-03-29T00:00:21;-1.40;99.90
8332;DHT22;4203;48.144;14.118;2023-03-29T00:02:48;-1.40;99.90
8332;DHT22;4203;48.144;14.118;2023-03-29T00:05:17;-1.40;99.90
8332;DHT22;4203;48.144;14.118;2023-03-29T00:07:44;-1.30;99.90
8332;DHT22;4203;48.144;14.118;2023-03-29T00:10:13;-1.30;99.90
8332;DHT22;4203;48.144;14.118;2023-03-29T00:12:40;-1.30;99.90
8332;DHT22;4203;48.144;14.118;2023-03-29T00:15:08;-1.40;99.90
8332;DHT22;4203;48.144;14.118;2023-03-29T00:17:35;-1.40;99.90
8332;DHT22;4203;48.144;14.118;2023-03-29T00:20:03;-1.30;99.90
8332;DHT22;4203;48.144;14.118;2023-03-29T00:22:33;-1.30;99.90
8332;DHT22;4203;48.144;14.118;2023-03-29T00:25:00;-1.30;99.90
8332;DHT22;4203;48.144;14.118;2023-03-29T00:27:29;-1.30;99.90
8332;DHT22;4203;48.144;14.118;2023-03-29T00:29:56;-1.30;99.90
8332;DHT22;4203;48.144;14.118;2023-03-29T00:32:23;-1.30;99.90
8332;DHT22;4203;48.144;14.118;2023-03-29T00:34:50;-1.30;99.90
8332;DHT22;4203;48.144;14.118;2023-03-29T00:37:17;-1.20;99.90
8332;DHT22;4203;48.144;14.118;2023-03-29T00:39:45;-1.20;99.90
8332;DHT22;4203;48.144;14.118;2023-03-29T00:42:15;-1.20;99.90
8332;DHT22;4203;48.144;14.118;2023-03-29T00:44:59;-1.20;99.90
8332;DHT22;4203;48.144;14.118;2023-03-29T00:47:30;-1.20;99.90
8332;DHT22;4203;48.144;14.118;2023-03-29T00:50:00;-1.10;99.90
8332;DHT22;4203;48.144;14.118;2023-03-29T00:52:30;-1.20;99.90
8332;DHT22;4203;48.144;14.118;2023-03-29T00:55:00;-1.20;99.90
8332;DHT22;4203;48.144;14.118;2023-03-29T00:57:29;-1.20;99.90
8332;DHT22;4203;48.144;14.118;2023-03-29T01:00:00;-1.20;99.90
8332;DHT22;4203;48.144;14.118;2023-03-29T01:02:31;-1.20;99.90
8332;DHT22;4203;48.144;14.118;2023-03-29T01:05:03;-1.10;99.90
8332;DHT22;4203;48.144;14.118;2023-03-29T01:07:37;-1.10;99.90
8332;DHT22;4203;48.144;14.118;2023-03-29T01:10:09;-1.10;99.90
8332;DHT22;4203;48.144;14.118;2023-03-29T01:12:42;-1.10;99.90
8332;DHT22;4203;48.144;14.118;2023-03-29T01:15:16;-1.10;99.90
8332;DHT22;4203;48.144;14.118;2023-03-29T01:17:44;-1.00;99.90
8332;DHT22;4203;48.144;14.118;2023-03-29T01:20:18;-1.00;99.90
8332;DHT22;4203;48.144;14.118;2023-03-29T01:23:06;-1.10;99.90
8332;DHT22;4203;48.144;14.118;2023-03-29T01:25:46;-1.10;99.90
8332;DHT22;4203;48.144;14.118;2023-03-29T01:28:20;-1.10;99.90
8332;DHT22;4203;48.144;14.118;2023-03-29T01:30:52;-1.20;99.90
8332;DHT22;4203;48.144;14.118;2023-03-29T01:33:23;-1.10;99.90
8332;DHT22;4203;48.144;14.118;2023-03-29T01:35:55;-1.10;99.90
8332;DHT22;4203;48.144;14.118;2023-03-29T01:38:27;-1.10;99.90
8332;DHT22;4203;48.144;14.118;2023-03-29T01:40:56;-1.10;99.90
8332;DHT22;4203;48.144;14.118;2023-03-29T01:43:28;-1.10;99.90
8332;DHT22;4203;48.144;14.118;2023-03-29T01:46:01;-1.10;99.90
8332;DHT22;4203;48.144;14.118;2023-03-29T01:48:34;-1.10;99.90
8332;DHT22;4203;48.144;14.118;2023-03-29T01:51:06;-1.10;99.90
8332;DHT22;4203;48.144;14.118;2023-03-29T01:53:37;-1.20;99.90
8332;DHT22;4203;48.144;14.118;2023-03-29T01:56:10;-1.30;99.90
8332;DHT22;4203;48.144;14.118;2023-03-29T01:58:42;-1.40;99.90
8332;DHT22;4203;48.144;14.118;2023-03-29T02:01:10;-1.40;99.90
8332;DHT22;4203;48.144;14.118;2023-03-29T02:03:41;-1.30;99.90
8332;DHT22;4203;48.144;14.118;2023-03-29T02:06:15;-1.30;99.90
8332;DHT22;4203;48.144;14.118;2023-03-29T02:08:44;-1.30;99.90
8332;DHT22;4203;48.144;14.118;2023-03-29T02:11:11;-1.20;99.90
8332;DHT22;4203;48.144;14.118;2023-03-29T02:13:40;-1.10;99.90
8332;DHT22;4203;48.144;14.118;2023-03-29T02:16:08;-1.10;99.90
8332;DHT22;4203;48.144;14.118;2023-03-29T02:18:37;-1.10;99.90
8332;DHT22;4203;48.144;14.118;2023-03-29T02:21:06;-1.10;99.90
8332;DHT22;4203;48.144;14.118;2023-03-29T02:23:36;-1.00;99.90
8332;DHT22;4203;48.144;14.118;2023-03-29T02:26:04;-1.10;99.90
8332;DHT22;4203;48.144;14.118;2023-03-29T02:28:33;-1.10;99.90
8332;DHT22;4203;48.144;14.118;2023-03-29T02:31:08;-1.10;99.90
8332;DHT22;4203;48.144;14.118;2023-03-29T02:33:44;-1.00;99.90
8332;DHT22;4203;48.144;14.118;2023-03-29T02:36:17;-1.00;99.90
8332;DHT22;4203;48.144;14.118;2023-03-29T02:38:45;-1.00;99.90
8332;DHT22;4203;48.144;14.118;2023-03-29T02:41:12;-0.90;99.90
8332;DHT22;4203;48.144;14.118;2023-03-29T02:43:41;-0.90;99.90
8332;DHT22;4203;48.144;14.118;2023-03-29T02:46:13;-1.00;99.90
8332;DHT22;4203;48.144;14.118;2023-03-29T02:48:41;-1.00;99.90
8332;DHT22;4203;48.144;14.118;2023-03-29T02:51:15;-0.90;99.90
8332;DHT22;4203;48.144;14.118;2023-03-29T02:53:47;-0.90;99.90
8332;DHT22;4203;48.144;14.118;2023-03-29T02:56:17;-0.90;99.90
8332;DHT22;4203;48.144;14.118;2023-03-29T02:58:45;-0.90;99.90
8332;DHT22;4203;48.144;14.118;2023-03-29T03:01:14;-0.80;99.90
8332;DHT22;4203;48.144;14.118;2023-03-29T03:03:42;-0.80;99.90
8332;DHT22;4203;48.144;14.118;2023-03-29T03:06:09;-0.80;99.90
8332;DHT22;4203;48.144;14.118;2023-03-29T03:08:37;-0.80;99.90
8332;DHT22;4203;48.144;14.118;2023-03-29T03:11:05;-0.80;99.90
8332;DHT22;4203;48.144;14.118;2023-03-29T03:13:33;-0.70;99.90
8332;DHT22;4203;48.144;14.118;2023-03-29T03:16:00;-0.70;99.90
8332;DHT22;4203;48.144;14.118;2023-03-29T03:18:29;-0.70;99.90
8332;DHT22;4203;48.144;14.118;2023-03-29T03:20:56;-0.60;99.90
8332;DHT22;4203;48.144;14.118;2023-03-29T03:23:26;-0.70;99.90
8332;DHT22;4203;48.144;14.118;2023-03-29T03:25:55;-0.60;99.90
8332;DHT22;4203;48.144;14.118;2023-03-29T03:28:23;-0.60;99.90
8332;DHT22;4203;48.144;14.118;2023-03-29T03:30:52;-0.50;99.90
8332;DHT22;4203;48.144;14.118;2023-03-29T03:33:19;-0.50;99.90
8332;DHT22;4203;48.144;14.118;2023-03-29T03:35:48;-0.50;99.90
8332;DHT22;4203;48.144;14.118;2023-03-29T03:38:15;-0.50;99.90
8332;DHT22;4203;48.144;14.118;2023-03-29T03:40:42;-0.40;99.90
8332;DHT22;4203;48.144;14.118;2023-03-29T03:43:09;-0.40;99.90
8332;DHT22;4203;48.144;14.118;2023-03-29T03:45:37;-0.40;99.90
8332;DHT22;4203;48.144;14.118;2023-03-29T03:48:05;-0.40;99.90
8332;DHT22;4203;48.144;14.118;2023-03-29T03:50:32;-0.30;99.90
8332;DHT22;4203;48.144;14.118;2023-03-29T03:53:00;-0.30;99.90
8332;DHT22;4203;48.144;14.118;2023-03-29T03:55:27;-0.30;99.90
8332;DHT22;4203;48.144;14.118;2023-03-29T03:57:57;-0.40;99.90
8332;DHT22;4203;48.144;14.118;2023-03-29T04:00:24;-0.50;99.90
8332;DHT22;4203;48.144;14.118;2023-03-29T04:02:52;-0.40;99.90
8332;DHT22;4203;48.144;14.118;2023-03-29T04:05:20;-0.40;99.90
8332;DHT22;4203;48.144;14.118;2023-03-29T04:07:48;-0.40;99.90
8332;DHT22;4203;48.144;14.118;2023-03-29T04:10:17;-0.40;99.90
8332;DHT22;4203;48.144;14.118;2023-03-29T04:12:44;-0.40;99.90
8332;DHT22;4203;48.144;14.118;2023-03-29T04:15:11;-0.40;99.90
8332;DHT22;4203;48.144;14.118;2023-03-29T04:17:38;-0.40;99.90
8332;DHT22;4203;48.144;14.118;2023-03-29T04:20:06;-0.30;99.90
8332;DHT22;4203;48.144;14.118;2023-03-29T04:22:37;-0.30;99.90
8332;DHT22;4203;48.144;14.118;2023-03-29T04:25:05;-0.30;99.90
8332;DHT22;4203;48.144;14.118;2023-03-29T04:27:34;-0.30;99.90
8332;DHT22;4203;48.144;14.118;2023-03-29T04:30:02;-0.20;99.90
8332;DHT22;4203;48.144;14.118;2023-03-29T04:32:29;-0.20;99.90
8332;DHT22;4203;48.144;14.118;2023-03-29T04:34:56;-0.10;99.90
8332;DHT22;4203;48.144;14.118;2023-03-29T04:37:23;-0.10;99.90
8332;DHT22;4203;48.144;14.118;2023-03-29T04:39:50;0.00;99.90
8332;DHT22;4203;48.144;14.118;2023-03-29T04:42:19;0.10;99.90
8332;DHT22;4203;48.144;14.118;2023-03-29T04:44:47;0.10;99.90
8332;DHT22;4203;48.144;14.118;2023-03-29T04:47:15;0.10;99.90
8332;DHT22;4203;48.144;14.118;2023-03-29T04:49:42;0.10;99.90
8332;DHT22;4203;48.144;14.118;2023-03-29T04:52:10;0.10;99.90
8332;DHT22;4203;48.144;14.118;2023-03-29T04:54:37;0.20;99.90
8332;DHT22;4203;48.144;14.118;2023-03-29T04:57:05;0.20;99.90
8332;DHT22;4203;48.144;14.118;2023-03-29T04:59:33;0.30;99.90
8332;DHT22;4203;48.144;14.118;2023-03-29T05:02:02;0.20;99.90
8332;DHT22;4203;48.144;14.118;2023-03-29T05:04:29;0.30;99.90
8332;DHT22;4203;48.144;14.118;2023-03-29T05:06:57;0.30;99.90
8332;DHT22;4203;48.144;14.118;2023-03-29T05:09:26;0.40;99.90
8332;DHT22;4203;48.144;14.118;2023-03-29T05:11:54;0.40;99.90
8332;DHT22;4203;48.144;14.118;2023-03-29T05:14:21;0.40;99.90
8332;DHT22;4203;48.144;14.118;2023-03-29T05:16:49;0.40;99.90
8332;DHT22;4203;48.144;14.118;2023-03-29T05:19:17;0.40;99.90
8332;DHT22;4203;48.144;14.118;2023-03-29T05:21:46;0.50;99.90
8332;DHT22;4203;48.144;14.118;2023-03-29T05:24:14;0.50;99.90
8332;DHT22;4203;48.144;14.118;2023-03-29T05:26:42;0.50;99.90
8332;DHT22;4203;48.144;14.118;2023-03-29T05:29:09;0.50;99.90
8332;DHT22;4203;48.144;14.118;2023-03-29T05:31:36;0.50;99.90
8332;DHT22;4203;48.144;14.118;2023-03-29T05:34:04;0.50;99.90
8332;DHT22;4203;48.144;14.118;2023-03-29T05:36:33;0.50;99.90
8332;DHT22;4203;48.144;14.118;2023-03-29T05:39:00;0.50;99.90
8332;DHT22;4203;48.144;14.118;2023-03-29T05:41:27;0.50;99.90
8332;DHT22;4203;48.144;14.118;2023-03-29T05:43:54;0.50;99.90
8332;DHT22;4203;48.144;14.118;2023-03-29T05:46:22;0.50;99.90
8332;DHT22;4203;48.144;14.118;2023-03-29T05:48:49;0.50;99.90
8332;DHT22;4203;48.144;14.118;2023-03-29T05:51:16;0.50;99.90
8332;DHT22;4203;48.144;14.118;2023-03-29T05:53:50;0.50;99.90
8332;DHT22;4203;48.144;14.118;2023-03-29T05:56:18;0.50;99.90
8332;DHT22;4203;48.144;14.118;2023-03-29T05:58:45;0.50;99.90
8332;DHT22;4203;48.144;14.118;2023-03-29T06:01:14;0.50;99.90
8332;DHT22;4203;48.144;14.118;2023-03-29T06:03:42;0.50;99.90
8332;DHT22;4203;48.144;14.118;2023-03-29T06:06:10;0.50;99.90
8332;DHT22;4203;48.144;14.118;2023-03-29T06:08:39;0.50;99.90
8332;DHT22;4203;48.144;14.118;2023-03-29T06:11:10;0.50;99.90
8332;DHT22;4203;48.144;14.118;2023-03-29T06:13:38;0.40;99.90
8332;DHT22;4203;48.144;14.118;2023-03-29T06:16:07;0.40;99.90
8332;DHT22;4203;48.144;14.118;2023-03-29T06:18:35;0.30;99.90
8332;DHT22;4203;48.144;14.118;2023-03-29T06:21:03;0.30;99.90
8332;DHT22;4203;48.144;14.118;2023-03-29T06:23:30;0.30;99.90
8332;DHT22;4203;48.144;14.118;2023-03-29T06:25:57;0.30;99.90
8332;DHT22;4203;48.144;14.118;2023-03-29T06:28:26;0.30;99.90
8332;DHT22;4203;48.144;14.118;2023-03-29T06:30:54;0.40;99.90
8332;DHT22;4203;48.144;14.118;2023-03-29T06:33:26;0.40;99.90
8332;DHT22;4203;48.144;14.118;2023-03-29T06:35:54;0.40;99.90
8332;DHT22;4203;48.144;14.118;2023-03-29T06:38:21;0.50;99.90
8332;DHT22;4203;48.144;14.118;2023-03-29T06:40:49;0.50;99.90
8332;DHT22;4203;48.144;14.118;2023-03-29T06:43:17;0.50;99.90
8332;DHT22;4203;48.144;14.118;2023-03-29T06:45:46;0.60;99.90
8332;DHT22;4203;48.144;14.118;2023-03-29T06:48:13;0.60;99.90
8332;DHT22;4203;48.144;14.118;2023-03-29T06:50:40;0.60;99.90
8332;DHT22;4203;48.144;14.118;2023-03-29T06:53:07;0.70;99.90
8332;DHT22;4203;48.144;14.118;2023-03-29T06:55:34;0.70;99.90
8332;DHT22;4203;48.144;14.118;2023-03-29T06:58:01;0.70;99.90
8332;DHT22;4203;48.144;14.118;2023-03-29T07:00:28;0.70;99.90
8332;DHT22;4203;48.144;14.118;2023-03-29T07:03:04;0.70;99.90
8332;DHT22;4203;48.144;14.118;2023-03-29T07:05:32;0.70;99.90
8332;DHT22;4203;48.144;14.118;2023-03-29T07:08:01;0.80;99.90
8332;DHT22;4203;48.144;14.118;2023-03-29T07:10:38;0.80;99.90
8332;DHT22;4203;48.144;14.118;2023-03-29T07:13:07;0.90;99.90
8332;DHT22;4203;48.144;14.118;2023-03-29T07:15:35;0.90;99.90
8332;DHT22;4203;48.144;14.118;2023-03-29T07:18:04;1.00;99.90
8332;DHT22;4203;48.144;14.118;2023-03-29T07:20:31;1.00;99.90
8332;DHT22;4203;48.144;14.118;2023-03-29T07:22:59;1.10;99.90
8332;DHT22;4203;48.144;14.118;2023-03-29T07:25:26;1.10;99.90
8332;DHT22;4203;48.144;14.118;2023-03-29T07:27:55;1.20;99.90
8332;DHT22;4203;48.144;14.118;2023-03-29T07:30:24;1.20;99.90
8332;DHT22;4203;48.144;14.118;2023-03-29T07:32:53;1.30;99.90
8332;DHT22;4203;48.144;14.118;2023-03-29T07:35:22;1.30;99.90
8332;DHT22;4203;48.144;14.118;2023-03-29T07:37:49;1.40;99.90
8332;DHT22;4203;48.144;14.118;2023-03-29T07:40:18;1.50;99.90
8332;DHT22;4203;48.144;14.118;2023-03-29T07:42:49;1.60;99.90
8332;DHT22;4203;48.144;14.118;2023-03-29T07:45:17;1.70;99.90
8332;DHT22;4203;48.144;14.118;2023-03-29T07:47:47;1.60;99.90
8332;DHT22;4203;48.144;14.118;2023-03-29T07:50:15;1.70;99.90
8332;DHT22;4203;48.144;14.118;2023-03-29T07:52:43;1.60;99.90
8332;DHT22;4203;48.144;14.118;2023-03-29T07:55:12;1.70;99.90
8332;DHT22;4203;48.144;14.118;2023-03-29T07:57:39;1.70;99.90
8332;DHT22;4203;48.144;14.118;2023-03-29T08:00:09;1.70;99.90
8332;DHT22;4203;48.144;14.118;2023-03-29T08:02:40;1.70;99.90
8332;DHT22;4203;48.144;14.118;2023-03-29T08:05:08;1.80;99.90
8332;DHT22;4203;48.144;14.118;2023-03-29T08:07:37;1.80;99.90
8332;DHT22;4203;48.144;14.118;2023-03-29T08:10:09;1.90;99.90
8332;DHT22;4203;48.144;14.118;2023-03-29T08:12:37;1.90;99.90
8332;DHT22;4203;48.144;14.118;2023-03-29T08:15:05;2.00;99.90
8332;DHT22;4203;48.144;14.118;2023-03-29T08:17:33;2.20;99.90
8332;DHT22;4203;48.144;14.118;2023-03-29T08:20:01;2.20;99.90
8332;DHT22;4203;48.144;14.118;2023-03-29T08:22:28;2.20;99.90
8332;DHT22;4203;48.144;14.118;2023-03-29T08:24:55;2.30;99.90
8332;DHT22;4203;48.144;14.118;2023-03-29T08:27:24;2.40;99.90
8332;DHT22;4203;48.144;14.118;2023-03-29T08:29:52;2.50;99.90
8332;DHT22;4203;48.144;14.118;2023-03-29T08:32:19;2.50;99.90
8332;DHT22;4203;48.144;14.118;2023-03-29T08:34:46;2.60;99.90
8332;DHT22;4203;48.144;14.118;2023-03-29T08:37:13;2.50;99.90
8332;DHT22;4203;48.144;14.118;2023-03-29T08:39:41;2.50;99.90
8332;DHT22;4203;48.144;14.118;2023-03-29T08:42:22;2.50;99.90
8332;DHT22;4203;48.144;14.118;2023-03-29T08:45:03;2.60;99.90
8332;DHT22;4203;48.144;14.118;2023-03-29T08:47:41;2.70;99.90
8332;DHT22;4203;48.144;14.118;2023-03-29T08:50:12;2.70;99.90
8332;DHT22;4203;48.144;14.118;2023-03-29T08:52:43;2.70;99.90
8332;DHT22;4203;48.144;14.118;2023-03-29T08:55:16;2.70;99.90
8332;DHT22;4203;48.144;14.118;2023-03-29T08:57:48;2.90;99.90
8332;DHT22;4203;48.144;14.118;2023-03-29T09:00:21;3.00;99.90
8332;DHT22;4203;48.144;14.118;2023-03-29T09:02:50;3.10;99.90
8332;DHT22;4203;48.144;14.118;2023-03-29T09:05:23;3.20;99.90
8332;DHT22;4203;48.144;14.118;2023-03-29T09:07:53;3.20;99.90
8332;DHT22;4203;48.144;14.118;2023-03-29T09:10:25;3.30;99.90
8332;DHT22;4203;48.144;14.118;2023-03-29T09:13:05;3.30;99.90
8332;DHT22;4203;48.144;14.118;2023-03-29T09:15:41;3.40;99.90
8332;DHT22;4203;48.144;14.118;2023-03-29T09:18:15;3.40;99.90
8332;DHT22;4203;48.144;14.118;2023-03-29T09:20:51;3.30;99.90
8332;DHT22;4203;48.144;14.118;2023-03-29T09:26:21;3.20;99.90
8332;DHT22;4203;48.144;14.118;2023-03-29T09:28:55;3.30;99.90
8332;DHT22;4203;48.144;14.118;2023-03-29T09:31:28;3.30;99.90
8332;DHT22;4203;48.144;14.118;2023-03-29T09:33:58;3.40;99.90
8332;DHT22;4203;48.144;14.118;2023-03-29T09:36:34;3.60;99.90
8332;DHT22;4203;48.144;14.118;2023-03-29T09:39:04;3.70;99.90
8332;DHT22;4203;48.144;14.118;2023-03-29T09:41:35;3.80;99.90
8332;DHT22;4203;48.144;14.118;2023-03-29T09:44:07;4.00;99.90
8332;DHT22;4203;48.144;14.118;2023-03-29T09:46:39;3.80;99.90
8332;DHT22;4203;48.144;14.118;2023-03-29T09:49:11;3.90;99.90
8332;DHT22;4203;48.144;14.118;2023-03-29T09:51:41;4.00;99.90
8332;DHT22;4203;48.144;14.118;2023-03-29T09:54:09;3.90;99.90
8332;DHT22;4203;48.144;14.118;2023-03-29T09:56:37;3.80;99.90
8332;DHT22;4203;48.144;14.118;2023-03-29T09:59:05;3.80;99.90
8332;DHT22;4203;48.144;14.118;2023-03-29T10:01:37;3.70;99.90
8332;DHT22;4203;48.144;14.118;2023-03-29T10:04:07;3.80;99.90
8332;DHT22;4203;48.144;14.118;2023-03-29T10:06:39;3.90;99.90
8332;DHT22;4203;48.144;14.118;2023-03-29T10:09:14;3.90;99.90
8332;DHT22;4203;48.144;14.118;2023-03-29T10:11:46;3.90;99.90
8332;DHT22;4203;48.144;14.118;2023-03-29T10:14:17;4.00;99.90
8332;DHT22;4203;48.144;14.118;2023-03-29T10:16:54;4.10;99.90
8332;DHT22;4203;48.144;14.118;2023-03-29T10:19:25;4.10;99.90
8332;DHT22;4203;48.144;14.118;2023-03-29T10:21:54;4.30;99.90
8332;DHT22;4203;48.144;14.118;2023-03-29T10:24:23;4.30;99.90
8332;DHT22;4203;48.144;14.118;2023-03-29T10:26:52;4.40;99.90
8332;DHT22;4203;48.144;14.118;2023-03-29T10:29:21;4.50;99.90
8332;DHT22;4203;48.144;14.118;2023-03-29T10:31:50;4.70;99.90
8332;DHT22;4203;48.144;14.118;2023-03-29T10:34:18;4.80;99.90
8332;DHT22;4203;48.144;14.118;2023-03-29T10:36:54;4.90;99.90
8332;DHT22;4203;48.144;14.118;2023-03-29T10:39:25;5.10;99.90
8332;DHT22;4203;48.144;14.118;2023-03-29T10:41:54;5.20;99.90
8332;DHT22;4203;48.144;14.118;2023-03-29T10:44:26;5.30;99.90
8332;DHT22;4203;48.144;14.118;2023-03-29T10:47:06;5.20;99.90
8332;DHT22;4203;48.144;14.118;2023-03-29T10:49:39;5.40;99.90
8332;DHT22;4203;48.144;14.118;2023-03-29T10:52:07;5.40;99.90
8332;DHT22;4203;48.144;14.118;2023-03-29T10:54:35;5.40;99.90
8332;DHT22;4203;48.144;14.118;2023-03-29T10:57:04;5.40;99.90
8332;DHT22;4203;48.144;14.118;2023-03-29T10:59:42;5.40;99.90
8332;DHT22;4203;48.144;14.118;2023-03-29T11:02:54;5.40;99.90
8332;DHT22;4203;48.144;14.118;2023-03-29T11:05:28;5.40;99.90
8332;DHT22;4203;48.144;14.118;2023-03-29T11:08:25;5.60;99.90
8332;DHT22;4203;48.144;14.118;2023-03-29T11:11:01;5.60;99.90
8332;DHT22;4203;48.144;14.118;2023-03-29T11:13:40;5.50;99.90
8332;DHT22;4203;48.144;14.118;2023-03-29T11:16:19;5.40;99.90
8332;DHT22;4203;48.144;14.118;2023-03-29T11:19:08;5.40;99.90
8332;DHT22;4203;48.144;14.118;2023-03-29T11:21:42;5.50;99.90
8332;DHT22;4203;48.144;14.118;2023-03-29T11:24:34;5.50;99.90
8332;DHT22;4203;48.144;14.118;2023-03-29T11:27:11;5.60;99.90
8332;DHT22;4203;48.144;14.118;2023-03-29T11:29:48;5.60;99.90
8332;DHT22;4203;48.144;14.118;2023-03-29T11:32:24;5.60;99.90
8332;DHT22;4203;48.144;14.118;2023-03-29T11:35:15;5.70;99.90
8332;DHT22;4203;48.144;14.118;2023-03-29T11:37:52;5.80;99.90
8332;DHT22;4203;48.144;14.118;2023-03-29T11:40:40;5.90;99.90
8332;DHT22;4203;48.144;14.118;2023-03-29T11:43:13;5.90;99.90
8332;DHT22;4203;48.144;14.118;2023-03-29T11:45:48;5.90;99.90
8332;DHT22;4203;48.144;14.118;2023-03-29T11:48:20;5.90;99.90
8332;DHT22;4203;48.144;14.118;2023-03-29T11:50:53;5.70;99.90
8332;DHT22;4203;48.144;14.118;2023-03-29T11:53:25;5.70;99.90
8332;DHT22;4203;48.144;14.118;2023-03-29T11:56:01;5.70;99.90
8332;DHT22;4203;48.144;14.118;2023-03-29T11:58:34;5.70;99.90
8332;DHT22;4203;48.144;14.118;2023-03-29T12:01:05;5.70;99.90
8332;DHT22;4203;48.144;14.118;2023-03-29T12:03:37;5.80;99.90
8332;DHT22;4203;48.144;14.118;2023-03-29T12:06:13;5.80;99.90
8332;DHT22;4203;48.144;14.118;2023-03-29T12:08:45;5.90;99.90
8332;DHT22;4203;48.144;14.118;2023-03-29T12:11:21;5.90;99.90
8332;DHT22;4203;48.144;14.118;2023-03-29T12:13:52;5.90;99.90
8332;DHT22;4203;48.144;14.118;2023-03-29T12:16:25;6.00;99.90
8332;DHT22;4203;48.144;14.118;2023-03-29T12:18:55;6.20;99.90
8332;DHT22;4203;48.144;14.118;2023-03-29T12:21:26;6.30;99.90
8332;DHT22;4203;48.144;14.118;2023-03-29T12:23:54;6.40;99.90
8332;DHT22;4203;48.144;14.118;2023-03-29T12:26:32;6.40;99.90
8332;DHT22;4203;48.144;14.118;2023-03-29T12:29:18;6.50;99.90
8332;DHT22;4203;48.144;14.118;2023-03-29T12:31:53;6.60;99.90
8332;DHT22;4203;48.144;14.118;2023-03-29T12:34:32;6.60;99.90
8332;DHT22;4203;48.144;14.118;2023-03-29T12:40:04;6.80;99.90
8332;DHT22;4203;48.144;14.118;2023-03-29T12:42:43;6.90;99.90
8332;DHT22;4203;48.144;14.118;2023-03-29T12:45:16;6.90;99.90
8332;DHT22;4203;48.144;14.118;2023-03-29T12:47:46;6.90;99.90
8332;DHT22;4203;48.144;14.118;2023-03-29T12:50:22;6.90;99.90
8332;DHT22;4203;48.144;14.118;2023-03-29T12:53:04;6.90;99.90
8332;DHT22;4203;48.144;14.118;2023-03-29T12:55:45;7.00;99.90
8332;DHT22;4203;48.144;14.118;2023-03-29T12:58:24;7.10;99.90
8332;DHT22;4203;48.144;14.118;2023-03-29T13:01:02;7.00;99.90
8332;DHT22;4203;48.144;14.118;2023-03-29T13:03:40;7.10;99.90
8332;DHT22;4203;48.144;14.118;2023-03-29T13:06:09;7.40;99.90
8332;DHT22;4203;48.144;14.118;2023-03-29T13:08:40;7.90;99.90
8332;DHT22;4203;48.144;14.118;2023-03-29T13:11:11;8.50;99.90
8332;DHT22;4203;48.144;14.118;2023-03-29T13:13:50;9.00;99.90
8332;DHT22;4203;48.144;14.118;2023-03-29T13:16:20;9.20;99.90
8332;DHT22;4203;48.144;14.118;2023-03-29T13:19:16;9.50;99.90
8332;DHT22;4203;48.144;14.118;2023-03-29T13:21:54;9.90;99.90
8332;DHT22;4203;48.144;14.118;2023-03-29T13:24:43;10.60;99.90
8332;DHT22;4203;48.144;14.118;2023-03-29T13:27:21;11.60;99.90
8332;DHT22;4203;48.144;14.118;2023-03-29T13:30:00;11.80;99.90
8332;DHT22;4203;48.144;14.118;2023-03-29T13:32:40;10.80;99.90
8332;DHT22;4203;48.144;14.118;2023-03-29T13:35:21;10.40;99.90
8332;DHT22;4203;48.144;14.118;2023-03-29T13:37:59;10.20;99.90
8332;DHT22;4203;48.144;14.118;2023-03-29T13:40:45;9.90;99.90
8332;DHT22;4203;48.144;14.118;2023-03-29T13:43:21;9.70;99.90
8332;DHT22;4203;48.144;14.118;2023-03-29T13:46:17;9.60;99.90
8332;DHT22;4203;48.144;14.118;2023-03-29T13:49:00;9.40;99.90
8332;DHT22;4203;48.144;14.118;2023-03-29T13:51:37;9.40;99.90
8332;DHT22;4203;48.144;14.118;2023-03-29T13:54:23;9.30;99.90
8332;DHT22;4203;48.144;14.118;2023-03-29T13:57:01;9.10;99.90
8332;DHT22;4203;48.144;14.118;2023-03-29T13:59:35;9.10;99.90
8332;DHT22;4203;48.144;14.118;2023-03-29T14:02:04;9.00;99.90
8332;DHT22;4203;48.144;14.118;2023-03-29T14:04:36;8.90;99.90
8332;DHT22;4203;48.144;14.118;2023-03-29T14:07:07;8.90;99.90
8332;DHT22;4203;48.144;14.118;2023-03-29T14:09:41;9.10;99.90
8332;DHT22;4203;48.144;14.118;2023-03-29T14:12:12;9.30;99.90
8332;DHT22;4203;48.144;14.118;2023-03-29T14:14:42;9.20;99.90
8332;DHT22;4203;48.144;14.118;2023-03-29T14:17:15;9.30;99.90
8332;DHT22;4203;48.144;14.118;2023-03-29T14:19:44;9.40;99.90
8332;DHT22;4203;48.144;14.118;2023-03-29T14:22:13;9.40;99.90
8332;DHT22;4203;48.144;14.118;2023-03-29T14:24:45;9.20;99.90
8332;DHT22;4203;48.144;14.118;2023-03-29T14:27:16;9.10;99.90
8332;DHT22;4203;48.144;14.118;2023-03-29T14:29:45;8.90;99.90
8332;DHT22;4203;48.144;14.118;2023-03-29T14:32:14;8.50;99.90
8332;DHT22;4203;48.144;14.118;2023-03-29T14:34:42;8.50;99.90
8332;DHT22;4203;48.144;14.118;2023-03-29T14:37:16;8.50;99.90
8332;DHT22;4203;48.144;14.118;2023-03-29T14:39:44;8.60;99.90
8332;DHT22;4203;48.144;14.118;2023-03-29T14:42:16;8.60;99.90
8332;DHT22;4203;48.144;14.118;2023-03-29T14:44:46;8.70;99.90
8332;DHT22;4203;48.144;14.118;2023-03-29T14:47:18;8.50;99.90
8332;DHT22;4203;48.144;14.118;2023-03-29T14:49:47;8.40;99.90
8332;DHT22;4203;48.144;14.118;2023-03-29T14:52:14;8.40;99.90
8332;DHT22;4203;48.144;14.118;2023-03-29T14:54:45;8.40;99.90
8332;DHT22;4203;48.144;14.118;2023-03-29T14:57:16;8.40;99.90
8332;DHT22;4203;48.144;14.118;2023-03-29T14:59:52;8.30;99.90
8332;DHT22;4203;48.144;14.118;2023-03-29T15:02:25;8.30;99.90
8332;DHT22;4203;48.144;14.118;2023-03-29T15:04:55;8.30;99.90
8332;DHT22;4203;48.144;14.118;2023-03-29T15:07:24;8.30;99.90
8332;DHT22;4203;48.144;14.118;2023-03-29T15:09:53;8.40;99.90
8332;DHT22;4203;48.144;14.118;2023-03-29T15:12:22;8.30;99.90
8332;DHT22;4203;48.144;14.118;2023-03-29T15:14:50;8.10;99.90
8332;DHT22;4203;48.144;14.118;2023-03-29T15:17:30;8.00;99.90
8332;DHT22;4203;48.144;14.118;2023-03-29T15:20:03;7.90;99.90
8332;DHT22;4203;48.144;14.118;2023-03-29T15:22:37;7.80;99.90
8332;DHT22;4203;48.144;14.118;2023-03-29T15:25:09;7.90;99.90
8332;DHT22;4203;48.144;14.118;2023-03-29T15:27:41;7.90;99.90
8332;DHT22;4203;48.144;14.118;2023-03-29T15:30:11;7.90;99.90
8332;DHT22;4203;48.144;14.118;2023-03-29T15:32:39;7.90;99.90
8332;DHT22;4203;48.144;14.118;2023-03-29T15:35:19;8.00;99.90
8332;DHT22;4203;48.144;14.118;2023-03-29T15:37:46;8.10;99.90
8332;DHT22;4203;48.144;14.118;2023-03-29T15:40:14;8.10;99.90
8332;DHT22;4203;48.144;14.118;2023-03-29T15:42:43;8.20;99.90
8332;DHT22;4203;48.144;14.118;2023-03-29T15:45:14;8.30;99.90
8332;DHT22;4203;48.144;14.118;2023-03-29T15:47:42;8.30;99.90
8332;DHT22;4203;48.144;14.118;2023-03-29T15:50:10;8.20;99.90
8332;DHT22;4203;48.144;14.118;2023-03-29T15:52:37;8.10;99.90
8332;DHT22;4203;48.144;14.118;2023-03-29T15:55:05;8.00;99.90
8332;DHT22;4203;48.144;14.118;2023-03-29T15:57:32;7.90;99.90
8332;DHT22;4203;48.144;14.118;2023-03-29T16:00:02;7.90;99.90
8332;DHT22;4203;48.144;14.118;2023-03-29T16:02:32;7.80;99.90
8332;DHT22;4203;48.144;14.118;2023-03-29T16:04:59;7.70;99.90
8332;DHT22;4203;48.144;14.118;2023-03-29T16:07:27;7.70;99.90
8332;DHT22;4203;48.144;14.118;2023-03-29T16:09:54;7.60;99.90
8332;DHT22;4203;48.144;14.118;2023-03-29T16:12:22;7.60;99.90
8332;DHT22;4203;48.144;14.118;2023-03-29T16:14:49;7.60;99.90
8332;DHT22;4203;48.144;14.118;2023-03-29T16:17:18;7.50;99.90
8332;DHT22;4203;48.144;14.118;2023-03-29T16:19:45;7.50;99.90
8332;DHT22;4203;48.144;14.118;2023-03-29T16:22:12;7.50;99.90
8332;DHT22;4203;48.144;14.118;2023-03-29T16:24:39;7.50;99.90
8332;DHT22;4203;48.144;14.118;2023-03-29T16:27:06;7.50;99.90